sensor_id;sensor_type;location;lat;lon;timestamp;pressure;altitude;pressure_sealevel;temperature;humidity
2563;BME280;1291;51.420;6.970;2023-02-28T00:00:34;101339.59;;;27.37;9.27
2563;BME280;1291;51.420;6.970;2023-02-28T00:03:00;101347.59;;;24.59;11.47
2563;BME280;1291;51.420;6.970;2023-02-28T00:05:27;101349.53;;;23.05;12.35
2563;BME280;1291;51.420;6.970;2023-02-28T00:07:53;101347.09;;;25.02;11.04
2563;BME280;1291;51.420;6.970;2023-02-28T00:10:20;101340.50;;;26.46;10.29
2563;BME280;1291;51.420;6.970;2023-02-28T00:12:49;101347.16;;;24.09;11.91
2563;BME280;1291;51.420;6.970;2023-02-28T00:15:16;101338.91;;;25.81;10.57
2563;BME280;1291;51.420;6.970;2023-02-28T00:17:42;101341.56;;;29.63;8.16
2563;BME280;1291;51.420;6.970;2023-02-28T00:20:08;101334.59;;;27.99;8.77
2563;BME280;1291;51.420;6.970;2023-02-28T00:22:38;101347.84;;;28.38;8.34
2563;BME280;1291;51.420;6.970;2023-02-28T00:25:04;101342.84;;;27.89;8.80
2563;BME280;1291;51.420;6.970;2023-02-28T00:27:32;101341.34;;;27.38;8.82
2563;BME280;1291;51.420;6.970;2023-02-28T00:29:57;101339.53;;;25.41;10.30
2563;BME280;1291;51.420;6.970;2023-02-28T00:32:26;101347.88;;;27.23;9.31
2563;BME280;1291;51.420;6.970;2023-02-28T00:34:51;101341.31;;;28.14;9.01
2563;BME280;1291;51.420;6.970;2023-02-28T00:37:16;101343.13;;;27.39;9.06
2563;BME280;1291;51.420;6.970;2023-02-28T00:39:42;101334.72;;;26.72;9.12
2563;BME280;1291;51.420;6.970;2023-02-28T00:42:08;101336.09;;;24.58;11.26
2563;BME280;1291;51.420;6.970;2023-02-28T00:44:33;101344.75;;;23.67;11.88
2563;BME280;1291;51.420;6.970;2023-02-28T00:47:00;101339.19;;;24.96;11.16
2563;BME280;1291;51.420;6.970;2023-02-28T00:49:28;101335.50;;;25.08;10.75
2563;BME280;1291;51.420;6.970;2023-02-28T00:51:56;101347.97;;;24.14;11.83
2563;BME280;1291;51.420;6.970;2023-02-28T00:54:22;101348.34;;;23.60;12.30
2563;BME280;1291;51.420;6.970;2023-02-28T00:56:48;101348.75;;;22.40;13.01
2563;BME280;1291;51.420;6.970;2023-02-28T00:59:15;101356.41;;;23.42;12.22
2563;BME280;1291;51.420;6.970;2023-02-28T01:01:42;101351.63;;;24.94;11.33
2563;BME280;1291;51.420;6.970;2023-02-28T01:04:07;101353.44;;;24.90;11.23
2563;BME280;1291;51.420;6.970;2023-02-28T01:06:33;101353.81;;;25.96;10.13
2563;BME280;1291;51.420;6.970;2023-02-28T01:08:59;101352.16;;;25.25;10.77
2563;BME280;1291;51.420;6.970;2023-02-28T01:11:28;101350.59;;;25.71;10.80
2563;BME280;1291;51.420;6.970;2023-02-28T01:13:53;101356.44;;;25.35;10.93
2563;BME280;1291;51.420;6.970;2023-02-28T01:16:18;101351.03;;;25.41;10.80
2563;BME280;1291;51.420;6.970;2023-02-28T01:18:44;101355.06;;;25.03;11.09
2563;BME280;1291;51.420;6.970;2023-02-28T01:21:12;101365.03;;;23.76;11.99
2563;BME280;1291;51.420;6.970;2023-02-28T01:23:38;101358.47;;;24.28;11.30
2563;BME280;1291;51.420;6.970;2023-02-28T01:26:12;101353.19;;;26.31;9.99
2563;BME280;1291;51.420;6.970;2023-02-28T01:28:39;101356.72;;;24.27;11.80
2563;BME280;1291;51.420;6.970;2023-02-28T01:31:05;101361.69;;;23.45;11.96
2563;BME280;1291;51.420;6.970;2023-02-28T01:33:31;101353.63;;;24.72;11.27
2563;BME280;1291;51.420;6.970;2023-02-28T01:36:01;101359.50;;;24.12;11.45
2563;BME280;1291;51.420;6.970;2023-02-28T01:38:26;101354.38;;;24.84;10.99
2563;BME280;1291;51.420;6.970;2023-02-28T01:40:52;101359.91;;;24.66;11.10
2563;BME280;1291;51.420;6.970;2023-02-28T01:45:46;101351.47;;;26.29;9.97
2563;BME280;1291;51.420;6.970;2023-02-28T01:48:11;101352.25;;;25.14;10.63
2563;BME280;1291;51.420;6.970;2023-02-28T01:50:41;101347.88;;;26.31;10.09
2563;BME280;1291;51.420;6.970;2023-02-28T01:53:11;101342.78;;;25.60;10.29
2563;BME280;1291;51.420;6.970;2023-02-28T01:55:39;101337.34;;;26.23;10.02
2563;BME280;1291;51.420;6.970;2023-02-28T01:58:08;101337.19;;;26.81;9.40
2563;BME280;1291;51.420;6.970;2023-02-28T02:00:34;101340.47;;;24.64;11.10
2563;BME280;1291;51.420;6.970;2023-02-28T02:03:06;101331.41;;;28.85;8.00
2563;BME280;1291;51.420;6.970;2023-02-28T02:05:36;101332.63;;;28.06;8.84
2563;BME280;1291;51.420;6.970;2023-02-28T02:08:05;101330.50;;;25.51;10.68
2563;BME280;1291;51.420;6.970;2023-02-28T02:10:41;101332.63;;;24.48;11.09
2563;BME280;1291;51.420;6.970;2023-02-28T02:18:46;101312.84;;;29.10;8.11
2563;BME280;1291;51.420;6.970;2023-02-28T02:27:17;101303.59;;;28.61;7.90
2563;BME280;1291;51.420;6.970;2023-02-28T02:35:16;101304.22;;;28.04;8.57
2563;BME280;1291;51.420;6.970;2023-02-28T02:41:14;101314.66;;;23.72;11.70
2563;BME280;1291;51.420;6.970;2023-02-28T02:43:55;101310.09;;;26.59;9.66
2563;BME280;1291;51.420;6.970;2023-02-28T02:48:56;101311.88;;;24.84;11.04
2563;BME280;1291;51.420;6.970;2023-02-28T02:51:24;101315.31;;;24.93;10.87
2563;BME280;1291;51.420;6.970;2023-02-28T02:53:57;101313.25;;;24.36;11.18
2563;BME280;1291;51.420;6.970;2023-02-28T02:56:27;101310.34;;;24.62;11.34
2563;BME280;1291;51.420;6.970;2023-02-28T02:58:58;101307.72;;;25.92;9.73
2563;BME280;1291;51.420;6.970;2023-02-28T03:01:27;101310.56;;;26.79;9.41
2563;BME280;1291;51.420;6.970;2023-02-28T03:03:59;101306.22;;;29.24;7.62
2563;BME280;1291;51.420;6.970;2023-02-28T03:06:25;101315.94;;;27.20;9.18
2563;BME280;1291;51.420;6.970;2023-02-28T03:08:51;101312.28;;;25.82;10.21
2563;BME280;1291;51.420;6.970;2023-02-28T03:11:16;101314.28;;;26.72;9.19
2563;BME280;1291;51.420;6.970;2023-02-28T03:30:27;101302.91;;;26.14;9.65
2563;BME280;1291;51.420;6.970;2023-02-28T03:33:05;101305.75;;;25.46;9.98
2563;BME280;1291;51.420;6.970;2023-02-28T03:35:36;101316.09;;;22.55;12.21
2563;BME280;1291;51.420;6.970;2023-02-28T03:40:53;101303.94;;;25.48;9.91
2563;BME280;1291;51.420;6.970;2023-02-28T03:43:34;101309.84;;;25.69;9.83
2563;BME280;1291;51.420;6.970;2023-02-28T03:46:02;101311.97;;;23.84;11.07
2563;BME280;1291;51.420;6.970;2023-02-28T03:48:37;101315.34;;;24.03;10.93
2563;BME280;1291;51.420;6.970;2023-02-28T03:51:07;101326.22;;;23.66;11.17
2563;BME280;1291;51.420;6.970;2023-02-28T03:53:38;101319.31;;;25.28;10.21
2563;BME280;1291;51.420;6.970;2023-02-28T03:56:21;101308.41;;;23.83;11.50
2563;BME280;1291;51.420;6.970;2023-02-28T03:59:20;101314.38;;;22.16;12.72
2563;BME280;1291;51.420;6.970;2023-02-28T04:01:48;101321.16;;;23.24;11.51
2563;BME280;1291;51.420;6.970;2023-02-28T04:04:15;101316.88;;;22.83;12.24
2563;BME280;1291;51.420;6.970;2023-02-28T04:06:41;101314.25;;;25.70;9.95
2563;BME280;1291;51.420;6.970;2023-02-28T04:09:09;101309.13;;;25.57;9.78
2563;BME280;1291;51.420;6.970;2023-02-28T04:11:45;101310.91;;;25.58;9.75
2563;BME280;1291;51.420;6.970;2023-02-28T04:14:11;101314.00;;;24.53;10.57
2563;BME280;1291;51.420;6.970;2023-02-28T04:16:40;101305.16;;;25.86;9.70
2563;BME280;1291;51.420;6.970;2023-02-28T04:19:12;101307.44;;;26.09;9.57
2563;BME280;1291;51.420;6.970;2023-02-28T04:21:40;101314.03;;;25.24;9.78
2563;BME280;1291;51.420;6.970;2023-02-28T04:24:12;101320.00;;;23.68;11.32
2563;BME280;1291;51.420;6.970;2023-02-28T04:26:43;101323.53;;;23.67;11.40
2563;BME280;1291;51.420;6.970;2023-02-28T04:29:10;101322.16;;;22.96;11.39
2563;BME280;1291;51.420;6.970;2023-02-28T04:31:35;101320.34;;;26.80;8.87
2563;BME280;1291;51.420;6.970;2023-02-28T04:34:01;101330.50;;;23.85;10.91
2563;BME280;1291;51.420;6.970;2023-02-28T04:36:27;101324.91;;;21.56;12.87
2563;BME280;1291;51.420;6.970;2023-02-28T04:38:52;101324.78;;;23.11;11.90
2563;BME280;1291;51.420;6.970;2023-02-28T04:41:19;101324.38;;;23.79;10.63
2563;BME280;1291;51.420;6.970;2023-02-28T04:43:44;101329.28;;;22.70;11.79
2563;BME280;1291;51.420;6.970;2023-02-28T04:46:10;101333.69;;;22.73;12.08
2563;BME280;1291;51.420;6.970;2023-02-28T04:48:37;101333.75;;;22.55;11.87
2563;BME280;1291;51.420;6.970;2023-02-28T04:51:08;101329.28;;;22.75;11.68
2563;BME280;1291;51.420;6.970;2023-02-28T04:53:37;101340.78;;;21.97;12.55
2563;BME280;1291;51.420;6.970;2023-02-28T04:56:04;101334.34;;;23.30;11.54
2563;BME280;1291;51.420;6.970;2023-02-28T04:58:31;101337.19;;;22.84;11.87
2563;BME280;1291;51.420;6.970;2023-02-28T05:01:22;101330.72;;;23.53;11.18
2563;BME280;1291;51.420;6.970;2023-02-28T05:03:56;101329.69;;;23.74;10.88
2563;BME280;1291;51.420;6.970;2023-02-28T05:06:24;101327.41;;;23.05;11.76
2563;BME280;1291;51.420;6.970;2023-02-28T05:08:50;101338.50;;;23.84;10.64
2563;BME280;1291;51.420;6.970;2023-02-28T05:11:24;101325.50;;;25.92;9.28
2563;BME280;1291;51.420;6.970;2023-02-28T05:13:50;101331.78;;;23.23;10.99
2563;BME280;1291;51.420;6.970;2023-02-28T05:16:17;101337.00;;;25.92;9.50
2563;BME280;1291;51.420;6.970;2023-02-28T05:18:43;101343.81;;;23.82;10.80
2563;BME280;1291;51.420;6.970;2023-02-28T05:21:24;101340.16;;;26.16;9.40
2563;BME280;1291;51.420;6.970;2023-02-28T05:23:51;101349.56;;;22.81;11.13
2563;BME280;1291;51.420;6.970;2023-02-28T05:26:16;101343.69;;;23.96;10.58
2563;BME280;1291;51.420;6.970;2023-02-28T05:28:42;101340.69;;;24.36;10.30
2563;BME280;1291;51.420;6.970;2023-02-28T05:31:10;101348.72;;;22.63;11.56
2563;BME280;1291;51.420;6.970;2023-02-28T05:33:35;101339.03;;;22.62;11.36
2563;BME280;1291;51.420;6.970;2023-02-28T05:36:01;101355.75;;;22.69;11.39
2563;BME280;1291;51.420;6.970;2023-02-28T05:38:26;101349.66;;;22.35;11.80
2563;BME280;1291;51.420;6.970;2023-02-28T05:40:52;101358.13;;;23.49;10.86
2563;BME280;1291;51.420;6.970;2023-02-28T05:43:18;101352.56;;;24.90;9.70
2563;BME280;1291;51.420;6.970;2023-02-28T05:45:44;101351.72;;;23.88;10.62
2563;BME280;1291;51.420;6.970;2023-02-28T05:48:09;101354.31;;;23.98;10.72
2563;BME280;1291;51.420;6.970;2023-02-28T05:50:34;101358.13;;;24.68;10.32
2563;BME280;1291;51.420;6.970;2023-02-28T05:53:00;101355.78;;;22.54;11.36
2563;BME280;1291;51.420;6.970;2023-02-28T05:55:25;101364.31;;;23.49;10.81
2563;BME280;1291;51.420;6.970;2023-02-28T05:57:51;101357.50;;;22.73;11.33
2563;BME280;1291;51.420;6.970;2023-02-28T06:00:16;101362.84;;;22.24;11.61
2563;BME280;1291;51.420;6.970;2023-02-28T06:02:43;101368.91;;;23.12;11.18
2563;BME280;1291;51.420;6.970;2023-02-28T06:05:14;101363.56;;;23.21;10.68
2563;BME280;1291;51.420;6.970;2023-02-28T06:07:40;101368.13;;;22.58;11.70
2563;BME280;1291;51.420;6.970;2023-02-28T06:10:05;101366.78;;;24.85;9.95
2563;BME280;1291;51.420;6.970;2023-02-28T06:12:34;101372.50;;;22.89;11.48
2563;BME280;1291;51.420;6.970;2023-02-28T06:14:59;101372.88;;;23.96;10.88
2563;BME280;1291;51.420;6.970;2023-02-28T06:17:24;101380.94;;;23.82;10.85
2563;BME280;1291;51.420;6.970;2023-02-28T06:19:50;101382.91;;;23.42;10.86
2563;BME280;1291;51.420;6.970;2023-02-28T06:22:15;101386.41;;;23.45;10.84
2563;BME280;1291;51.420;6.970;2023-02-28T06:24:40;101387.53;;;22.72;11.22
2563;BME280;1291;51.420;6.970;2023-02-28T06:27:06;101388.31;;;23.13;11.41
2563;BME280;1291;51.420;6.970;2023-02-28T06:29:32;101384.44;;;25.61;9.71
2563;BME280;1291;51.420;6.970;2023-02-28T06:31:58;101391.53;;;23.84;11.05
2563;BME280;1291;51.420;6.970;2023-02-28T06:34:23;101394.97;;;23.95;10.47
2563;BME280;1291;51.420;6.970;2023-02-28T06:36:50;101391.06;;;24.44;10.30
2563;BME280;1291;51.420;6.970;2023-02-28T06:39:16;101396.41;;;22.43;11.38
2563;BME280;1291;51.420;6.970;2023-02-28T06:41:42;101396.00;;;21.02;12.76
2563;BME280;1291;51.420;6.970;2023-02-28T06:44:12;101396.75;;;23.93;10.44
2563;BME280;1291;51.420;6.970;2023-02-28T06:46:41;101397.16;;;23.21;10.97
2563;BME280;1291;51.420;6.970;2023-02-28T06:49:07;101390.06;;;25.38;9.48
2563;BME280;1291;51.420;6.970;2023-02-28T06:51:38;101405.16;;;22.08;11.63
2563;BME280;1291;51.420;6.970;2023-02-28T06:54:04;101394.72;;;24.31;10.24
2563;BME280;1291;51.420;6.970;2023-02-28T06:56:29;101400.75;;;22.75;11.01
2563;BME280;1291;51.420;6.970;2023-02-28T06:58:55;101392.19;;;25.78;9.26
2563;BME280;1291;51.420;6.970;2023-02-28T07:01:21;101395.66;;;27.74;8.12
2563;BME280;1291;51.420;6.970;2023-02-28T07:03:48;101402.75;;;25.14;9.79
2563;BME280;1291;51.420;6.970;2023-02-28T07:06:18;101399.09;;;25.91;9.19
2563;BME280;1291;51.420;6.970;2023-02-28T07:08:43;101403.47;;;24.40;10.13
2563;BME280;1291;51.420;6.970;2023-02-28T07:11:09;101408.38;;;23.67;10.51
2563;BME280;1291;51.420;6.970;2023-02-28T07:13:35;101400.94;;;25.18;9.48
2563;BME280;1291;51.420;6.970;2023-02-28T07:16:03;101417.06;;;24.00;10.52
2563;BME280;1291;51.420;6.970;2023-02-28T07:18:29;101407.03;;;27.42;8.31
2563;BME280;1291;51.420;6.970;2023-02-28T07:20:55;101407.63;;;28.33;7.68
2563;BME280;1291;51.420;6.970;2023-02-28T07:23:21;101412.16;;;27.93;7.56
2563;BME280;1291;51.420;6.970;2023-02-28T07:25:46;101406.94;;;26.53;8.84
2563;BME280;1291;51.420;6.970;2023-02-28T07:28:12;101407.91;;;28.58;7.51
2563;BME280;1291;51.420;6.970;2023-02-28T07:30:38;101416.38;;;23.66;10.20
2563;BME280;1291;51.420;6.970;2023-02-28T07:33:04;101413.19;;;27.88;7.66
2563;BME280;1291;51.420;6.970;2023-02-28T07:35:30;101413.53;;;28.46;7.47
2563;BME280;1291;51.420;6.970;2023-02-28T07:37:57;101417.47;;;26.64;8.29
2563;BME280;1291;51.420;6.970;2023-02-28T07:40:23;101423.88;;;28.24;7.54
2563;BME280;1291;51.420;6.970;2023-02-28T07:42:48;101421.34;;;25.14;9.10
2563;BME280;1291;51.420;6.970;2023-02-28T07:45:13;101417.47;;;26.64;9.05
2563;BME280;1291;51.420;6.970;2023-02-28T07:47:40;101426.06;;;23.78;10.67
2563;BME280;1291;51.420;6.970;2023-02-28T07:50:09;101418.56;;;24.37;10.03
2563;BME280;1291;51.420;6.970;2023-02-28T07:52:38;101424.63;;;22.50;11.50
2563;BME280;1291;51.420;6.970;2023-02-28T07:55:05;101417.94;;;27.33;8.27
2563;BME280;1291;51.420;6.970;2023-02-28T07:57:31;101422.63;;;27.18;8.23
2563;BME280;1291;51.420;6.970;2023-02-28T07:59:57;101424.38;;;24.82;9.34
2563;BME280;1291;51.420;6.970;2023-02-28T08:02:22;101424.06;;;25.79;8.88
2563;BME280;1291;51.420;6.970;2023-02-28T08:04:47;101428.84;;;26.74;8.56
2563;BME280;1291;51.420;6.970;2023-02-28T08:07:14;101428.44;;;26.94;8.33
2563;BME280;1291;51.420;6.970;2023-02-28T08:09:39;101426.28;;;26.13;8.61
2563;BME280;1291;51.420;6.970;2023-02-28T08:12:06;101434.91;;;23.78;10.49
2563;BME280;1291;51.420;6.970;2023-02-28T08:14:34;101438.97;;;25.24;9.17
2563;BME280;1291;51.420;6.970;2023-02-28T08:17:00;101442.91;;;23.60;10.37
2563;BME280;1291;51.420;6.970;2023-02-28T08:19:26;101445.19;;;24.26;9.90
2563;BME280;1291;51.420;6.970;2023-02-28T08:21:51;101435.84;;;24.85;9.64
2563;BME280;1291;51.420;6.970;2023-02-28T08:24:17;101438.03;;;24.37;10.00
2563;BME280;1291;51.420;6.970;2023-02-28T08:26:42;101441.19;;;24.82;9.61
2563;BME280;1291;51.420;6.970;2023-02-28T08:29:08;101432.69;;;26.54;8.52
2563;BME280;1291;51.420;6.970;2023-02-28T08:31:33;101441.94;;;23.75;10.25
2563;BME280;1291;51.420;6.970;2023-02-28T08:34:04;101438.00;;;24.39;9.87
2563;BME280;1291;51.420;6.970;2023-02-28T08:36:29;101438.06;;;24.31;9.52
2563;BME280;1291;51.420;6.970;2023-02-28T08:38:54;101439.56;;;22.87;10.91
2563;BME280;1291;51.420;6.970;2023-02-28T08:41:21;101427.63;;;26.90;8.18
2563;BME280;1291;51.420;6.970;2023-02-28T08:43:46;101425.41;;;28.34;7.36
2563;BME280;1291;51.420;6.970;2023-02-28T08:46:13;101429.41;;;26.90;8.42
2563;BME280;1291;51.420;6.970;2023-02-28T08:48:39;101435.91;;;27.64;7.56
2563;BME280;1291;51.420;6.970;2023-02-28T08:51:10;101434.78;;;26.87;8.15
2563;BME280;1291;51.420;6.970;2023-02-28T08:53:37;101428.59;;;25.00;9.25
2563;BME280;1291;51.420;6.970;2023-02-28T08:58:30;101425.50;;;27.53;7.27
2563;BME280;1291;51.420;6.970;2023-02-28T09:00:56;101434.50;;;24.35;9.23
2563;BME280;1291;51.420;6.970;2023-02-28T09:03:21;101432.44;;;23.24;9.79
2563;BME280;1291;51.420;6.970;2023-02-28T09:08:18;101425.50;;;22.53;9.91
2563;BME280;1291;51.420;6.970;2023-02-28T09:10:43;101428.63;;;24.97;8.72
2563;BME280;1291;51.420;6.970;2023-02-28T09:13:15;101424.78;;;25.25;8.32
2563;BME280;1291;51.420;6.970;2023-02-28T09:15:43;101425.31;;;23.42;9.35
2563;BME280;1291;51.420;6.970;2023-02-28T09:18:09;101425.25;;;23.56;9.69
2563;BME280;1291;51.420;6.970;2023-02-28T09:20:37;101421.03;;;27.10;7.37
2563;BME280;1291;51.420;6.970;2023-02-28T09:23:03;101423.72;;;26.06;7.84
2563;BME280;1291;51.420;6.970;2023-02-28T09:25:29;101421.28;;;25.22;8.63
2563;BME280;1291;51.420;6.970;2023-02-28T09:27:57;101420.06;;;27.14;7.06
2563;BME280;1291;51.420;6.970;2023-02-28T09:30:22;101417.38;;;26.67;7.71
2563;BME280;1291;51.420;6.970;2023-02-28T09:32:48;101428.59;;;23.96;9.03
2563;BME280;1291;51.420;6.970;2023-02-28T09:35:24;101416.53;;;25.49;8.34
2563;BME280;1291;51.420;6.970;2023-02-28T09:37:50;101414.56;;;24.89;8.08
2563;BME280;1291;51.420;6.970;2023-02-28T09:40:21;101426.28;;;23.27;9.28
2563;BME280;1291;51.420;6.970;2023-02-28T09:42:48;101428.16;;;22.45;10.20
2563;BME280;1291;51.420;6.970;2023-02-28T09:45:28;101424.88;;;27.40;6.90
2563;BME280;1291;51.420;6.970;2023-02-28T09:47:56;101414.47;;;27.70;7.20
2563;BME280;1291;51.420;6.970;2023-02-28T09:52:53;101422.44;;;25.69;7.89
2563;BME280;1291;51.420;6.970;2023-02-28T09:55:24;101419.94;;;24.82;7.82
2563;BME280;1291;51.420;6.970;2023-02-28T09:57:53;101418.34;;;21.70;10.30
2563;BME280;1291;51.420;6.970;2023-02-28T10:00:40;101424.16;;;23.98;8.68
2563;BME280;1291;51.420;6.970;2023-02-28T10:05:55;101417.75;;;28.18;6.65
2563;BME280;1291;51.420;6.970;2023-02-28T10:08:38;101414.59;;;24.85;8.21
2563;BME280;1291;51.420;6.970;2023-02-28T10:11:10;101412.13;;;24.65;8.05
2563;BME280;1291;51.420;6.970;2023-02-28T10:13:49;101406.03;;;27.48;6.99
2563;BME280;1291;51.420;6.970;2023-02-28T10:16:20;101405.19;;;25.34;8.02
2563;BME280;1291;51.420;6.970;2023-02-28T10:18:58;101399.38;;;29.41;5.67
2563;BME280;1291;51.420;6.970;2023-02-28T10:21:47;101399.72;;;28.28;6.52
2563;BME280;1291;51.420;6.970;2023-02-28T10:24:49;101407.41;;;23.92;8.41
2563;BME280;1291;51.420;6.970;2023-02-28T10:29:48;101402.81;;;26.87;7.36
2563;BME280;1291;51.420;6.970;2023-02-28T10:32:19;101414.38;;;25.04;7.97
2563;BME280;1291;51.420;6.970;2023-02-28T10:37:34;101403.13;;;25.56;7.66
2563;BME280;1291;51.420;6.970;2023-02-28T10:40:05;101404.75;;;25.67;7.68
2563;BME280;1291;51.420;6.970;2023-02-28T10:42:31;101410.63;;;26.96;7.23
2563;BME280;1291;51.420;6.970;2023-02-28T10:45:24;101402.00;;;26.83;6.80
2563;BME280;1291;51.420;6.970;2023-02-28T10:50:33;101394.06;;;26.81;7.19
2563;BME280;1291;51.420;6.970;2023-02-28T10:55:43;101401.63;;;21.91;9.70
2563;BME280;1291;51.420;6.970;2023-02-28T11:01:42;101380.59;;;26.36;6.76
2563;BME280;1291;51.420;6.970;2023-02-28T11:06:42;101384.81;;;24.53;7.93
2563;BME280;1291;51.420;6.970;2023-02-28T11:09:37;101390.09;;;24.56;7.93
2563;BME280;1291;51.420;6.970;2023-02-28T11:12:06;101376.31;;;27.22;6.23
2563;BME280;1291;51.420;6.970;2023-02-28T11:14:40;101377.84;;;22.19;8.83
2563;BME280;1291;51.420;6.970;2023-02-28T11:17:24;101381.53;;;24.20;7.89
2563;BME280;1291;51.420;6.970;2023-02-28T11:19:53;101385.47;;;23.57;8.24
2563;BME280;1291;51.420;6.970;2023-02-28T11:22:22;101376.75;;;25.42;7.50
2563;BME280;1291;51.420;6.970;2023-02-28T11:24:52;101378.63;;;23.07;8.61
2563;BME280;1291;51.420;6.970;2023-02-28T11:29:57;101378.00;;;24.21;8.01
2563;BME280;1291;51.420;6.970;2023-02-28T11:32:27;101376.09;;;25.23;7.80
2563;BME280;1291;51.420;6.970;2023-02-28T11:37:32;101384.06;;;24.32;8.12
2563;BME280;1291;51.420;6.970;2023-02-28T11:39:58;101374.06;;;26.04;7.24
2563;BME280;1291;51.420;6.970;2023-02-28T11:42:45;101374.56;;;25.71;7.43
2563;BME280;1291;51.420;6.970;2023-02-28T11:45:29;101373.13;;;24.72;7.64
2563;BME280;1291;51.420;6.970;2023-02-28T11:50:41;101377.63;;;23.37;8.76
2563;BME280;1291;51.420;6.970;2023-02-28T11:53:16;101365.94;;;24.80;7.78
2563;BME280;1291;51.420;6.970;2023-02-28T11:56:02;101371.47;;;25.38;7.61
2563;BME280;1291;51.420;6.970;2023-02-28T11:58:51;101382.13;;;23.18;8.56
2563;BME280;1291;51.420;6.970;2023-02-28T12:07:40;101373.13;;;24.71;8.19
2563;BME280;1291;51.420;6.970;2023-02-28T12:10:24;101369.03;;;22.63;9.51
2563;BME280;1291;51.420;6.970;2023-02-28T12:13:12;101369.03;;;22.54;9.40
2563;BME280;1291;51.420;6.970;2023-02-28T12:18:34;101356.44;;;25.97;7.68
2563;BME280;1291;51.420;6.970;2023-02-28T12:21:11;101360.66;;;26.62;7.14
2563;BME280;1291;51.420;6.970;2023-02-28T12:26:37;101343.50;;;30.65;5.18
2563;BME280;1291;51.420;6.970;2023-02-28T12:29:23;101335.63;;;28.63;5.80
2563;BME280;1291;51.420;6.970;2023-02-28T12:34:41;101331.38;;;29.18;5.58
2563;BME280;1291;51.420;6.970;2023-02-28T12:37:12;101320.03;;;26.94;6.83
2563;BME280;1291;51.420;6.970;2023-02-28T12:39:49;101323.94;;;27.20;7.00
2563;BME280;1291;51.420;6.970;2023-02-28T12:42:25;101312.97;;;25.97;7.25
2563;BME280;1291;51.420;6.970;2023-02-28T12:45:13;101307.69;;;25.95;7.29
2563;BME280;1291;51.420;6.970;2023-02-28T12:47:42;101315.94;;;23.01;9.09
2563;BME280;1291;51.420;6.970;2023-02-28T12:50:10;101318.81;;;24.11;8.75
2563;BME280;1291;51.420;6.970;2023-02-28T12:55:43;101300.56;;;26.46;7.49
2563;BME280;1291;51.420;6.970;2023-02-28T13:09:17;101284.06;;;27.92;6.54
2563;BME280;1291;51.420;6.970;2023-02-28T13:11:48;101287.94;;;27.00;7.10
2563;BME280;1291;51.420;6.970;2023-02-28T13:14:35;101281.59;;;26.16;7.58
2563;BME280;1291;51.420;6.970;2023-02-28T13:19:43;101266.50;;;29.10;6.32
2563;BME280;1291;51.420;6.970;2023-02-28T13:22:43;101279.56;;;27.58;6.68
2563;BME280;1291;51.420;6.970;2023-02-28T13:27:51;101263.38;;;25.93;7.62
2563;BME280;1291;51.420;6.970;2023-02-28T13:33:25;101267.59;;;28.42;6.59
2563;BME280;1291;51.420;6.970;2023-02-28T13:38:42;101270.94;;;26.16;7.59
2563;BME280;1291;51.420;6.970;2023-02-28T13:44:15;101264.94;;;24.83;8.55
2563;BME280;1291;51.420;6.970;2023-02-28T13:49:32;101250.63;;;25.57;8.27
2563;BME280;1291;51.420;6.970;2023-02-28T13:55:22;101262.53;;;24.65;8.59
2563;BME280;1291;51.420;6.970;2023-02-28T14:06:28;101257.84;;;28.40;6.05
2563;BME280;1291;51.420;6.970;2023-02-28T14:09:16;101254.38;;;27.68;6.87
2563;BME280;1291;51.420;6.970;2023-02-28T14:11:45;101254.59;;;28.29;6.92
2563;BME280;1291;51.420;6.970;2023-02-28T14:17:04;101250.94;;;25.39;8.46
2563;BME280;1291;51.420;6.970;2023-02-28T14:19:31;101249.13;;;28.95;6.36
2563;BME280;1291;51.420;6.970;2023-02-28T14:24:51;101251.66;;;25.50;8.52
2563;BME280;1291;51.420;6.970;2023-02-28T14:28:37;101243.50;;;29.04;6.71
2563;BME280;1291;51.420;6.970;2023-02-28T14:33:38;101243.47;;;26.62;7.99
2563;BME280;1291;51.420;6.970;2023-02-28T14:36:44;101246.25;;;26.54;8.27
2563;BME280;1291;51.420;6.970;2023-02-28T14:39:19;101241.19;;;27.98;7.19
2563;BME280;1291;51.420;6.970;2023-02-28T14:41:46;101241.13;;;28.32;7.24
2563;BME280;1291;51.420;6.970;2023-02-28T14:46:41;101234.56;;;26.15;8.54
2563;BME280;1291;51.420;6.970;2023-02-28T14:49:16;101235.66;;;26.04;8.34
2563;BME280;1291;51.420;6.970;2023-02-28T14:51:42;101237.56;;;27.65;7.40
2563;BME280;1291;51.420;6.970;2023-02-28T14:54:14;101247.78;;;23.36;9.93
2563;BME280;1291;51.420;6.970;2023-02-28T14:56:40;101244.59;;;27.69;7.64
2563;BME280;1291;51.420;6.970;2023-02-28T14:59:23;101238.53;;;28.31;7.24
2563;BME280;1291;51.420;6.970;2023-02-28T15:01:48;101245.75;;;25.30;8.77
2563;BME280;1291;51.420;6.970;2023-02-28T15:04:22;101237.31;;;26.58;8.33
2563;BME280;1291;51.420;6.970;2023-02-28T15:07:10;101239.72;;;25.73;8.67
2563;BME280;1291;51.420;6.970;2023-02-28T15:09:36;101242.78;;;27.33;7.63
2563;BME280;1291;51.420;6.970;2023-02-28T15:12:01;101233.34;;;28.25;7.45
2563;BME280;1291;51.420;6.970;2023-02-28T15:14:27;101239.13;;;27.37;7.54
2563;BME280;1291;51.420;6.970;2023-02-28T15:17:02;101232.88;;;28.42;7.74
2563;BME280;1291;51.420;6.970;2023-02-28T15:19:32;101232.66;;;29.09;6.69
2563;BME280;1291;51.420;6.970;2023-02-28T15:22:06;101225.88;;;26.94;7.68
2563;BME280;1291;51.420;6.970;2023-02-28T15:24:42;101222.78;;;28.20;7.22
2563;BME280;1291;51.420;6.970;2023-02-28T15:27:22;101221.19;;;32.36;4.98
2563;BME280;1291;51.420;6.970;2023-02-28T15:29:54;101237.59;;;26.43;8.41
2563;BME280;1291;51.420;6.970;2023-02-28T15:32:25;101230.06;;;25.67;8.81
2563;BME280;1291;51.420;6.970;2023-02-28T15:34:51;101237.66;;;24.74;9.37
2563;BME280;1291;51.420;6.970;2023-02-28T15:40:29;101220.72;;;25.97;8.46
2563;BME280;1291;51.420;6.970;2023-02-28T15:45:47;101222.38;;;27.68;7.72
2563;BME280;1291;51.420;6.970;2023-02-28T15:50:49;101223.19;;;25.55;8.86
2563;BME280;1291;51.420;6.970;2023-02-28T15:53:17;101220.72;;;30.51;5.84
2563;BME280;1291;51.420;6.970;2023-02-28T15:55:44;101234.63;;;27.00;8.12
2563;BME280;1291;51.420;6.970;2023-02-28T15:58:13;101226.69;;;25.59;8.68
2563;BME280;1291;51.420;6.970;2023-02-28T16:00:39;101226.38;;;26.27;7.94
2563;BME280;1291;51.420;6.970;2023-02-28T16:03:34;101217.91;;;28.34;7.18
2563;BME280;1291;51.420;6.970;2023-02-28T16:08:46;101225.31;;;25.35;9.13
2563;BME280;1291;51.420;6.970;2023-02-28T16:11:14;101231.16;;;27.36;7.90